Time;durP1;ratioP1;P1;durP2;ratioP2;P2;SDS_P1;SDS_P2;PMS_P1;PMS_P2;Temp;Humidity;BMP_temperature;BMP_pressure;BME280_temperature;BME280_humidity;BME280_pressure;Samples;Min_cycle;Max_cycle;Signal;HPM_P1;HPM_P2
2022/12/02 00:02:28;;;;;;;15.00;6.97;;;0.90;97.30;;;;;;4944050;28;20520;-87
2022/12/02 00:05:22;;;;;;;10.97;6.13;;;0.90;97.30;;;;;;4934680;28;20444;-88
2022/12/02 00:07:50;;;;;;;8.57;5.73;;;0.90;97.30;;;;;;4914983;28;20441;-87
2022/12/02 00:10:31;;;;;;;16.00;7.80;;;0.90;97.30;;;;;;4901181;28;20813;-85
2022/12/02 00:13:30;;;;;;;25.43;7.80;;;0.90;97.30;;;;;;4917618;28;20430;-87
2022/12/02 00:16:03;;;;;;;10.37;6.90;;;0.90;97.30;;;;;;4916364;28;20459;-86
2022/12/02 00:18:29;;;;;;;10.07;6.80;;;0.90;97.30;;;;;;4980278;28;20464;-86
2022/12/02 00:21:01;;;;;;;13.70;6.50;;;0.90;97.30;;;;;;4911098;29;20427;-87
2022/12/02 00:23:28;;;;;;;19.07;7.87;;;0.90;97.30;;;;;;4915403;28;20424;-87
2022/12/02 00:26:02;;;;;;;5.80;5.40;;;0.90;97.30;;;;;;4975616;23;20506;-86
2022/12/02 00:28:30;;;;;;;10.50;6.93;;;0.90;97.30;;;;;;5033871;28;20429;-87
2022/12/02 00:31:31;;;;;;;8.80;6.27;;;0.90;97.30;;;;;;5016054;28;20440;-85
2022/12/02 00:34:00;;;;;;;8.13;5.03;;;0.90;97.30;;;;;;5023333;28;20926;-86
2022/12/02 00:36:39;;;;;;;21.13;6.77;;;0.90;97.30;;;;;;5034870;28;20434;-86
2022/12/02 00:39:08;;;;;;;7.30;6.90;;;0.90;97.30;;;;;;5023494;28;20434;-87
2022/12/02 00:41:38;;;;;;;20.03;6.97;;;0.90;97.30;;;;;;5031902;28;20507;-90
2022/12/02 00:46:50;;;;;;;10.17;7.60;;;0.90;97.30;;;;;;5023296;28;20472;-88
2022/12/02 00:49:17;;;;;;;12.83;4.90;;;0.90;97.30;;;;;;5035014;28;20478;-87
2022/12/02 00:51:44;;;;;;;6.23;5.20;;;0.90;97.30;;;;;;5033746;28;20766;-87
2022/12/02 00:54:10;;;;;;;13.67;5.17;;;0.90;97.30;;;;;;5020972;28;20424;-87
2022/12/02 00:56:36;;;;;;;12.33;7.80;;;0.90;97.30;;;;;;5033136;28;20439;-89
2022/12/02 00:59:03;;;;;;;10.83;6.10;;;0.90;97.30;;;;;;5019474;28;20454;-87
2022/12/02 01:01:29;;;;;;;24.53;7.00;;;0.90;97.30;;;;;;5033127;28;20183;-85
2022/12/02 01:03:54;;;;;;;22.63;7.67;;;0.90;97.30;;;;;;5018822;28;20482;-87
2022/12/02 01:06:20;;;;;;;7.23;5.50;;;0.90;97.30;;;;;;5027171;28;20790;-86
2022/12/02 01:08:45;;;;;;;16.30;8.67;;;0.90;97.30;;;;;;5014655;28;20276;-87
2022/12/02 01:11:11;;;;;;;11.60;6.57;;;0.90;97.30;;;;;;5025640;28;20196;-88
2022/12/02 01:13:37;;;;;;;9.33;8.83;;;0.90;97.30;;;;;;5014786;28;20557;-87
2022/12/02 01:16:02;;;;;;;28.53;5.67;;;0.90;97.30;;;;;;5033083;28;20201;-87
2022/12/02 01:18:28;;;;;;;8.83;4.00;;;0.90;97.30;;;;;;5032707;28;20268;-87
2022/12/02 01:20:54;;;;;;;15.00;5.63;;;0.90;97.30;;;;;;5032902;28;20214;-87
2022/12/02 01:23:20;;;;;;;12.20;6.67;;;0.90;97.30;;;;;;5031604;28;20227;-86
2022/12/02 01:25:47;;;;;;;2.90;1.93;;;0.90;97.30;;;;;;5032535;28;20597;-86
2022/12/02 01:28:13;;;;;;;7.73;3.73;;;0.90;97.30;;;;;;5032431;28;20199;-86
2022/12/02 01:30:39;;;;;;;10.00;5.27;;;0.90;97.30;;;;;;5032732;28;20454;-87
2022/12/02 01:33:04;;;;;;;22.93;6.87;;;0.90;97.30;;;;;;5020209;28;20510;-86
2022/12/02 01:35:30;;;;;;;11.30;7.77;;;0.90;97.30;;;;;;5032785;28;20209;-85
2022/12/02 01:37:55;;;;;;;11.40;6.77;;;0.90;97.30;;;;;;5021237;28;20205;-87
2022/12/02 01:40:21;;;;;;;19.70;6.43;;;0.90;97.30;;;;;;5032520;28;20207;-88
2022/12/02 01:42:48;;;;;;;14.50;6.80;;;0.90;97.30;;;;;;5031244;28;20207;-86
2022/12/02 01:45:14;;;;;;;7.70;7.30;;;0.90;97.30;;;;;;5034048;28;20279;-88
2022/12/02 01:47:40;;;;;;;7.80;6.77;;;0.90;97.30;;;;;;5032923;28;20430;-89
2022/12/02 01:50:09;;;;;;;10.60;7.33;;;1.00;97.30;;;;;;5032565;28;20430;-88
2022/12/02 01:52:35;;;;;;;13.13;4.77;;;0.90;97.30;;;;;;5033047;28;20425;-87
2022/12/02 01:55:02;;;;;;;6.00;4.33;;;0.90;97.30;;;;;;5023878;28;20475;-87
2022/12/02 01:57:30;;;;;;;7.60;5.23;;;0.90;97.30;;;;;;5028248;28;20458;-88
2022/12/02 01:59:56;;;;;;;10.00;6.50;;;0.90;97.30;;;;;;5032573;28;20510;-87
2022/12/02 02:02:37;;;;;;;3.87;2.83;;;0.90;97.30;;;;;;5032062;28;20470;-87
2022/12/02 02:05:06;;;;;;;8.60;7.10;;;1.00;97.30;;;;;;5032597;28;20434;-87
2022/12/02 02:07:32;;;;;;;8.60;7.17;;;1.00;97.30;;;;;;5032735;28;20425;-86
2022/12/02 02:09:58;;;;;;;5.47;5.20;;;1.00;97.30;;;;;;5032944;28;20422;-87
2022/12/02 02:12:25;;;;;;;17.50;7.37;;;1.00;97.30;;;;;;5033340;28;20426;-87
2022/12/02 02:14:51;;;;;;;6.73;4.50;;;1.00;97.30;;;;;;5039850;28;20188;-87
2022/12/02 02:17:17;;;;;;;9.23;6.40;;;1.00;97.30;;;;;;5044394;28;20482;-87
2022/12/02 02:19:43;;;;;;;11.57;5.70;;;1.00;97.30;;;;;;5047370;28;20199;-90
2022/12/02 02:22:23;;;;;;;5.97;5.67;;;1.00;97.30;;;;;;5053251;28;20437;-89
2022/12/02 02:24:49;;;;;;;19.33;8.00;;;0.90;97.30;;;;;;5054915;28;20396;-90
2022/12/02 02:27:14;;;;;;;4.83;4.07;;;0.90;97.30;;;;;;5073564;28;20453;-91
2022/12/02 02:29:40;;;;;;;16.53;5.40;;;0.90;97.30;;;;;;5061635;28;20251;-90
2022/12/02 02:32:05;;;;;;;12.43;7.53;;;0.90;97.30;;;;;;5028203;28;20220;-86
2022/12/02 02:34:31;;;;;;;16.03;4.30;;;0.90;97.30;;;;;;5019225;28;20188;-89
2022/12/02 02:36:57;;;;;;;19.43;7.93;;;0.90;97.30;;;;;;5020024;28;20350;-88
2022/12/02 02:39:23;;;;;;;7.23;6.07;;;0.90;97.30;;;;;;5029727;28;20233;-91
2022/12/02 02:41:50;;;;;;;10.23;7.23;;;0.90;97.30;;;;;;5042078;28;20434;-89
2022/12/02 02:44:16;;;;;;;14.53;7.10;;;0.90;97.30;;;;;;5056112;28;20511;-87
2022/12/02 02:46:41;;;;;;;11.60;7.00;;;0.90;97.30;;;;;;5027103;28;20440;-86
2022/12/02 02:49:07;;;;;;;8.07;5.70;;;0.90;97.30;;;;;;5033021;28;20429;-88
2022/12/02 02:51:33;;;;;;;15.97;7.23;;;1.00;97.30;;;;;;5046137;28;20175;-86
2022/12/02 02:53:58;;;;;;;17.47;6.83;;;0.90;97.30;;;;;;5052478;28;20184;-87
2022/12/02 02:56:24;;;;;;;11.97;6.90;;;0.90;97.30;;;;;;5026474;28;20200;-88
2022/12/02 02:58:49;;;;;;;5.10;4.80;;;0.90;97.30;;;;;;5042171;28;20458;-87
2022/12/02 03:01:26;;;;;;;6.93;5.80;;;0.90;97.30;;;;;;5037894;28;20292;-87
2022/12/02 03:03:57;;;;;;;11.13;5.63;;;0.90;97.30;;;;;;5048368;28;20445;-87
2022/12/02 03:06:25;;;;;;;13.00;8.23;;;1.00;97.30;;;;;;5045793;28;20905;-87
2022/12/02 03:08:51;;;;;;;26.70;7.40;;;0.90;97.30;;;;;;5032881;28;20435;-88
2022/12/02 03:11:17;;;;;;;6.00;3.37;;;0.90;97.30;;;;;;5025234;28;20518;-88
2022/12/02 03:13:44;;;;;;;7.90;4.47;;;0.90;97.30;;;;;;5012517;28;20984;-87
2022/12/02 03:16:13;;;;;;;11.30;7.43;;;0.90;97.30;;;;;;5012409;28;20216;-87
2022/12/02 03:18:40;;;;;;;9.17;5.87;;;0.90;97.30;;;;;;5034557;28;20609;-86
2022/12/02 03:21:07;;;;;;;8.73;6.33;;;0.90;97.30;;;;;;5050595;28;20415;-88
2022/12/02 03:23:33;;;;;;;11.40;6.70;;;0.90;97.30;;;;;;5049045;28;20433;-87
2022/12/02 03:26:00;;;;;;;9.67;5.43;;;0.90;97.30;;;;;;5044097;28;20642;-87
2022/12/02 03:28:25;;;;;;;13.67;8.37;;;0.90;97.30;;;;;;5032048;28;20426;-87
2022/12/02 03:30:51;;;;;;;8.77;5.00;;;0.90;97.30;;;;;;5030976;28;20859;-87
2022/12/02 03:33:17;;;;;;;8.80;5.17;;;0.90;97.30;;;;;;5026848;28;20188;-89
2022/12/02 03:35:43;;;;;;;9.83;5.07;;;0.90;97.30;;;;;;5021757;28;20205;-87
2022/12/02 03:38:08;;;;;;;11.20;7.03;;;0.90;97.30;;;;;;5038004;28;20461;-86
2022/12/02 03:40:34;;;;;;;10.70;6.83;;;0.90;97.30;;;;;;5020581;28;20179;-87
2022/12/02 03:43:00;;;;;;;11.60;5.63;;;0.90;97.30;;;;;;5027907;28;20192;-86
2022/12/02 03:45:25;;;;;;;8.40;6.37;;;0.90;97.30;;;;;;5031305;28;20623;-86
2022/12/02 03:47:51;;;;;;;24.97;6.40;;;0.90;97.30;;;;;;5031554;28;20200;-86
2022/12/02 03:50:17;;;;;;;12.10;5.60;;;0.90;97.30;;;;;;5028737;28;20189;-87
2022/12/02 03:52:43;;;;;;;9.90;5.43;;;0.90;97.30;;;;;;5016021;28;20192;-87
2022/12/02 03:55:09;;;;;;;11.17;6.90;;;0.90;97.30;;;;;;5022241;28;20880;-86
2022/12/02 03:57:35;;;;;;;2.60;2.40;;;1.00;97.30;;;;;;5028443;28;20204;-87
2022/12/02 04:00:04;;;;;;;18.27;9.37;;;0.90;97.30;;;;;;5037252;28;20446;-87
2022/12/02 04:02:30;;;;;;;21.10;5.27;;;0.90;97.30;;;;;;5037316;28;20423;-86
2022/12/02 04:04:56;;;;;;;3.87;3.67;;;0.90;97.30;;;;;;5037012;28;20526;-87
2022/12/02 04:07:21;;;;;;;7.40;7.00;;;0.90;97.30;;;;;;5037014;28;20422;-87
2022/12/02 04:09:47;;;;;;;9.63;4.50;;;0.90;97.30;;;;;;5036994;28;20176;-88
2022/12/02 04:12:12;;;;;;;10.70;5.50;;;0.90;97.30;;;;;;5035589;28;20188;-87
2022/12/02 04:14:38;;;;;;;6.73;4.90;;;0.90;97.30;;;;;;5034818;28;20188;-87
2022/12/02 04:17:03;;;;;;;22.13;7.70;;;0.90;97.30;;;;;;5035292;28;20200;-86
2022/12/02 04:19:29;;;;;;;8.90;5.73;;;0.90;97.30;;;;;;5031298;28;20177;-88
2022/12/02 04:21:55;;;;;;;11.73;6.83;;;0.90;97.30;;;;;;5024866;28;20185;-87
2022/12/02 04:24:20;;;;;;;30.13;7.30;;;0.90;97.30;;;;;;5034045;28;20192;-87
2022/12/02 04:26:46;;;;;;;8.33;6.03;;;0.90;97.30;;;;;;5050575;28;20377;-88
2022/12/02 04:29:11;;;;;;;5.33;3.97;;;0.90;97.30;;;;;;5041642;28;20188;-87
2022/12/02 04:31:37;;;;;;;4.70;4.43;;;0.90;97.30;;;;;;5038947;28;20183;-88
2022/12/02 04:34:02;;;;;;;20.77;8.83;;;0.90;97.30;;;;;;5054611;28;20844;-87
2022/12/02 04:36:28;;;;;;;8.87;4.77;;;0.90;97.30;;;;;;5039130;28;20730;-88
2022/12/02 04:38:53;;;;;;;12.77;5.20;;;0.90;97.30;;;;;;5036298;28;20552;-88
2022/12/02 04:41:19;;;;;;;12.40;7.43;;;0.90;97.30;;;;;;5029123;28;20216;-88
2022/12/02 04:43:44;;;;;;;10.57;3.57;;;0.90;97.30;;;;;;5019957;28;20278;-88
2022/12/02 04:46:10;;;;;;;6.63;6.23;;;0.90;97.30;;;;;;5028439;28;20212;-87
2022/12/02 04:48:35;;;;;;;11.90;6.53;;;0.90;97.30;;;;;;5019112;23;20263;-89
2022/12/02 04:51:01;;;;;;;5.47;5.20;;;0.90;97.30;;;;;;4897600;28;20207;-89
2022/12/02 04:53:26;;;;;;;8.87;4.43;;;0.90;97.30;;;;;;4898697;29;20184;-90
2022/12/02 04:55:52;;;;;;;5.37;5.07;;;0.90;97.30;;;;;;4898429;29;20212;-89
2022/12/02 04:58:17;;;;;;;7.50;6.20;;;0.90;97.30;;;;;;4898287;28;20291;-89
2022/12/02 05:00:43;;;;;;;24.33;7.07;;;0.90;97.30;;;;;;4898361;28;20181;-88
2022/12/02 05:03:08;;;;;;;14.10;4.43;;;0.90;97.30;;;;;;4897946;29;20178;-90
2022/12/02 05:05:34;;;;;;;10.07;6.90;;;0.90;97.30;;;;;;4914522;29;20556;-87
2022/12/02 05:07:59;;;;;;;5.00;4.33;;;0.90;97.30;;;;;;4883702;29;20786;-90
2022/12/02 05:10:26;;;;;;;8.97;7.53;;;0.90;97.30;;;;;;4887912;29;20192;-89
2022/12/02 05:12:52;;;;;;;4.93;4.00;;;0.90;97.30;;;;;;4905833;29;20212;-89
2022/12/02 05:15:19;;;;;;;15.00;8.23;;;0.90;97.30;;;;;;4906331;29;20465;-90
2022/12/02 05:17:47;;;;;;;16.73;7.27;;;0.90;97.30;;;;;;4894639;29;20204;-90
2022/12/02 05:20:12;;;;;;;5.50;4.17;;;0.90;97.30;;;;;;4891476;28;20446;-91
2022/12/02 05:22:39;;;;;;;16.93;8.20;;;0.90;97.30;;;;;;4894536;29;20860;-90
2022/12/02 05:25:05;;;;;;;3.90;3.70;;;0.90;97.30;;;;;;4896024;28;20418;-89
2022/12/02 05:27:31;;;;;;;8.77;6.53;;;0.90;97.30;;;;;;4893198;29;20965;-89
2022/12/02 05:29:56;;;;;;;16.63;7.23;;;0.90;97.30;;;;;;4897672;29;20470;-90
2022/12/02 05:32:22;;;;;;;5.27;5.03;;;0.90;97.30;;;;;;4897635;28;20428;-89
2022/12/02 05:34:48;;;;;;;7.93;7.53;;;0.90;97.30;;;;;;4910218;29;20193;-89
2022/12/02 05:37:13;;;;;;;7.10;4.30;;;0.90;97.30;;;;;;4885696;29;20706;-90
2022/12/02 05:39:39;;;;;;;11.87;8.30;;;0.90;97.30;;;;;;4914725;29;20192;-89
2022/12/02 05:42:10;;;;;;;8.43;4.80;;;0.90;97.30;;;;;;4897454;29;20181;-90
2022/12/02 05:44:37;;;;;;;10.40;7.13;;;0.90;97.30;;;;;;4947592;28;20189;-89
2022/12/02 05:47:10;;;;;;;6.23;5.53;;;0.90;97.30;;;;;;4897453;29;20435;-88
2022/12/02 05:49:37;;;;;;;7.23;5.03;;;0.90;97.30;;;;;;4886584;29;20565;-90
2022/12/02 05:52:17;;;;;;;14.93;6.90;;;0.90;97.30;;;;;;4897265;29;20435;-90
2022/12/02 05:54:43;;;;;;;8.57;3.53;;;0.90;97.30;;;;;;4888314;29;20454;-89
2022/12/02 05:57:10;;;;;;;6.70;4.23;;;0.90;97.30;;;;;;4891278;29;20481;-89
2022/12/02 05:59:36;;;;;;;11.10;8.00;;;0.90;97.30;;;;;;4905102;29;20196;-88
2022/12/02 06:02:04;;;;;;;13.07;9.67;;;0.90;97.30;;;;;;4896971;29;20794;-89
2022/12/02 06:04:33;;;;;;;13.77;7.80;;;0.90;97.30;;;;;;4891779;29;20287;-89
2022/12/02 06:07:00;;;;;;;10.47;7.00;;;0.90;97.30;;;;;;4899193;29;20425;-91
2022/12/02 06:09:32;;;;;;;7.20;6.80;;;0.90;97.30;;;;;;4896993;29;20437;-90
2022/12/02 06:11:59;;;;;;;6.00;4.60;;;0.90;97.30;;;;;;4910500;29;20915;-89
2022/12/02 06:14:31;;;;;;;17.87;7.57;;;0.90;97.30;;;;;;4892950;29;20421;-90
2022/12/02 06:17:09;;;;;;;7.30;5.13;;;0.90;97.30;;;;;;4895968;29;20834;-91
2022/12/02 06:19:52;;;;;;;13.47;7.47;;;0.90;97.30;;;;;;4889136;29;20450;-88
2022/12/02 06:22:28;;;;;;;4.83;4.33;;;0.90;97.30;;;;;;4912255;28;20755;-89
2022/12/02 06:24:55;;;;;;;3.60;3.40;;;0.90;97.30;;;;;;4894972;29;20419;-89
2022/12/02 06:27:21;;;;;;;4.80;4.50;;;0.90;97.30;;;;;;4897049;29;20451;-89
2022/12/02 06:29:57;;;;;;;5.97;5.20;;;0.90;97.30;;;;;;4893441;28;20437;-90
2022/12/02 06:32:30;;;;;;;6.90;4.10;;;0.90;97.30;;;;;;4916106;28;20423;-89
2022/12/02 06:34:59;;;;;;;16.80;6.33;;;0.90;97.30;;;;;;4891221;29;21014;-89
2022/12/02 06:37:29;;;;;;;12.00;6.37;;;0.90;97.30;;;;;;4895515;29;20467;-89
2022/12/02 06:39:58;;;;;;;15.90;9.47;;;0.90;97.30;;;;;;4895403;28;20452;-90
2022/12/02 06:42:38;;;;;;;8.03;5.60;;;0.90;97.30;;;;;;4907326;29;20923;-90
2022/12/02 06:45:13;;;;;;;23.50;7.97;;;1.00;97.30;;;;;;4909957;28;20515;-88
2022/12/02 06:47:39;;;;;;;7.00;6.50;;;1.00;97.30;;;;;;4895520;29;20428;-89
2022/12/02 06:50:04;;;;;;;12.93;6.83;;;1.00;97.30;;;;;;4893806;29;21081;-92
2022/12/02 06:52:41;;;;;;;11.23;9.97;;;0.90;97.30;;;;;;4893539;28;20200;-88
2022/12/02 06:55:34;;;;;;;7.97;5.57;;;0.90;97.30;;;;;;4896068;28;20188;-88
2022/12/02 06:58:15;;;;;;;5.47;4.90;;;0.90;97.30;;;;;;4884006;29;20526;-88
2022/12/02 07:00:42;;;;;;;18.83;3.63;;;0.90;97.30;;;;;;4895027;29;20536;-89
2022/12/02 07:03:32;;;;;;;8.13;4.63;;;0.90;97.30;;;;;;4895528;28;20802;-88
2022/12/02 07:06:11;;;;;;;12.03;5.00;;;0.90;97.30;;;;;;4896874;29;20425;-92
2022/12/02 07:08:36;;;;;;;7.10;4.17;;;0.90;97.30;;;;;;4892642;29;20459;-92
2022/12/02 07:11:13;;;;;;;35.10;9.70;;;0.80;97.30;;;;;;4906881;29;20409;-89
2022/12/02 07:13:39;;;;;;;6.87;6.47;;;0.90;97.30;;;;;;4897465;29;20180;-89
2022/12/02 07:16:30;;;;;;;3.37;3.17;;;0.90;97.30;;;;;;4898006;29;20450;-89
2022/12/02 07:18:56;;;;;;;9.90;9.40;;;0.90;97.30;;;;;;4887691;29;20224;-90
2022/12/02 07:21:21;;;;;;;10.67;6.67;;;0.90;97.30;;;;;;4896952;29;20417;-89
2022/12/02 07:23:47;;;;;;;6.13;5.87;;;0.90;97.30;;;;;;4896925;29;20195;-89
2022/12/02 07:26:12;;;;;;;10.00;7.10;;;0.90;97.30;;;;;;4886632;29;20299;-89
2022/12/02 07:28:43;;;;;;;8.93;6.27;;;0.90;97.30;;;;;;4900235;29;20216;-89
2022/12/02 07:31:26;;;;;;;24.00;6.77;;;0.90;97.30;;;;;;4899706;29;20234;-88
2022/12/02 07:33:52;;;;;;;16.77;5.40;;;0.90;97.30;;;;;;4899466;29;20436;-89
2022/12/02 07:36:19;;;;;;;6.83;5.73;;;0.90;97.30;;;;;;4899178;28;20512;-91
2022/12/02 07:38:45;;;;;;;7.00;5.53;;;0.90;97.30;;;;;;4888275;29;20883;-89
2022/12/02 07:41:12;;;;;;;11.00;6.50;;;0.90;97.30;;;;;;4899248;29;20425;-89
2022/12/02 07:43:37;;;;;;;8.70;2.83;;;0.90;97.30;;;;;;4887628;29;20200;-90
2022/12/02 07:46:03;;;;;;;31.83;8.60;;;0.90;97.30;;;;;;4911345;29;20516;-89
2022/12/02 07:48:29;;;;;;;13.93;5.80;;;1.00;97.30;;;;;;4917563;28;20752;-89
2022/12/02 07:50:54;;;;;;;16.07;7.27;;;1.00;97.30;;;;;;4899371;29;20730;-89
2022/12/02 07:53:20;;;;;;;10.83;5.10;;;1.00;97.30;;;;;;4887642;29;20674;-89
2022/12/02 07:55:45;;;;;;;14.70;5.97;;;1.00;97.30;;;;;;4885737;29;20688;-91
2022/12/02 07:58:11;;;;;;;6.57;6.17;;;1.00;97.30;;;;;;4889246;29;20695;-89
2022/12/02 08:00:36;;;;;;;9.47;5.90;;;1.00;97.30;;;;;;4900338;29;20183;-90
2022/12/02 08:03:02;;;;;;;20.70;6.20;;;1.00;97.30;;;;;;4899318;28;20239;-90
2022/12/02 08:05:28;;;;;;;11.87;7.37;;;1.00;97.30;;;;;;4898472;28;20266;-89
2022/12/02 08:07:54;;;;;;;11.47;7.10;;;1.00;97.30;;;;;;4898912;28;20180;-88
2022/12/02 08:10:20;;;;;;;4.90;4.60;;;1.00;97.30;;;;;;4894889;28;20213;-88
2022/12/02 08:12:46;;;;;;;12.40;5.13;;;1.00;97.30;;;;;;4881176;29;20185;-89
2022/12/02 08:15:15;;;;;;;19.17;4.50;;;1.00;97.30;;;;;;4892762;29;20496;-89
2022/12/02 08:17:41;;;;;;;11.87;10.10;;;1.00;97.30;;;;;;4893139;28;20243;-89
2022/12/02 08:20:10;;;;;;;11.53;5.57;;;1.00;97.30;;;;;;4899182;29;20465;-89
2022/12/02 08:22:36;;;;;;;6.70;5.00;;;1.10;97.30;;;;;;4899010;29;20187;-89
2022/12/02 08:25:05;;;;;;;4.03;3.80;;;1.00;97.30;;;;;;4899889;28;20424;-91
2022/12/02 08:27:31;;;;;;;6.87;4.17;;;1.00;97.30;;;;;;4898888;29;20195;-88
2022/12/02 08:29:59;;;;;;;9.07;4.90;;;1.00;97.30;;;;;;4886736;29;21017;-89
2022/12/02 08:32:28;;;;;;;13.07;9.67;;;1.00;97.30;;;;;;4899455;28;20189;-89
2022/12/02 08:35:30;;;;;;;;;;;;;;;;;;;;;
2022/12/02 08:37:56;;;;;;;7.50;3.97;;;1.00;97.30;;;;;;4911066;29;20480;-88
2022/12/02 08:40:22;;;;;;;11.43;7.03;;;1.00;97.30;;;;;;4892624;29;20425;-90
2022/12/02 08:42:47;;;;;;;6.37;4.77;;;1.00;97.30;;;;;;4899558;29;21013;-90
2022/12/02 08:45:13;;;;;;;6.37;5.50;;;1.00;97.30;;;;;;4900328;29;20654;-90
2022/12/02 08:47:39;;;;;;;15.57;7.30;;;1.00;97.30;;;;;;4898185;29;20647;-89
2022/12/02 08:50:05;;;;;;;14.33;9.23;;;1.00;97.30;;;;;;4900457;29;20706;-90
2022/12/02 08:52:31;;;;;;;12.03;7.20;;;1.00;97.30;;;;;;4905326;29;20242;-89
2022/12/02 08:54:57;;;;;;;8.37;5.17;;;1.00;97.30;;;;;;4901228;28;20501;-90
2022/12/02 08:57:23;;;;;;;14.67;7.10;;;1.00;97.30;;;;;;4911226;29;20208;-90
2022/12/02 08:59:49;;;;;;;4.70;4.40;;;1.00;97.30;;;;;;4882641;29;20446;-90
2022/12/02 09:02:15;;;;;;;18.87;11.10;;;1.00;97.30;;;;;;4895889;29;20461;-90
2022/12/02 09:04:40;;;;;;;9.50;7.20;;;1.00;97.30;;;;;;4894613;29;20231;-90
2022/12/02 09:07:06;;;;;;;7.23;5.73;;;1.00;97.30;;;;;;4901944;29;20778;-91
2022/12/02 09:09:31;;;;;;;10.63;5.83;;;1.00;97.30;;;;;;4897978;29;20700;-90
2022/12/02 09:11:57;;;;;;;18.63;9.10;;;1.00;97.30;;;;;;4901104;28;20644;-90
2022/12/02 09:14:22;;;;;;;15.77;3.77;;;1.00;97.30;;;;;;4900655;29;20485;-90
2022/12/02 09:16:49;;;;;;;7.50;4.60;;;1.00;97.30;;;;;;4900532;29;20667;-89
2022/12/02 09:19:14;;;;;;;7.10;4.97;;;1.00;97.30;;;;;;4900461;28;20218;-89
2022/12/02 09:21:40;;;;;;;8.17;6.57;;;1.00;97.30;;;;;;4900471;29;20955;-89
2022/12/02 09:24:06;;;;;;;7.83;4.90;;;1.00;97.30;;;;;;4902269;28;20180;-89
2022/12/02 09:26:33;;;;;;;9.43;8.20;;;1.00;97.30;;;;;;4903129;29;20677;-90
2022/12/02 09:28:58;;;;;;;4.93;4.63;;;1.00;97.30;;;;;;4903757;28;20243;-88
2022/12/02 09:31:24;;;;;;;8.83;4.87;;;1.00;97.30;;;;;;4902002;29;20425;-89
2022/12/02 09:33:49;;;;;;;9.93;6.10;;;1.00;97.30;;;;;;4903598;29;20188;-89
2022/12/02 09:36:15;;;;;;;10.60;6.93;;;1.00;97.30;;;;;;4901066;29;20189;-89
2022/12/02 09:38:40;;;;;;;16.37;7.30;;;1.00;97.30;;;;;;4902034;29;20271;-89
2022/12/02 09:41:06;;;;;;;8.40;6.53;;;1.00;97.30;;;;;;4903269;29;20214;-89
2022/12/02 09:43:34;;;;;;;15.50;6.23;;;1.00;97.30;;;;;;4920381;29;20208;-91
2022/12/02 09:46:01;;;;;;;6.60;5.83;;;1.00;97.30;;;;;;4902671;28;20185;-92
2022/12/02 09:48:27;;;;;;;17.57;6.77;;;1.00;97.30;;;;;;4901253;28;21014;-90
2022/12/02 09:50:55;;;;;;;13.30;5.50;;;1.00;97.30;;;;;;4900576;29;20477;-89
2022/12/02 09:53:22;;;;;;;6.37;5.27;;;1.10;97.30;;;;;;4889075;29;20453;-89
2022/12/02 09:55:47;;;;;;;5.30;5.00;;;1.00;97.30;;;;;;4899662;29;20435;-92
2022/12/02 09:58:20;;;;;;;8.43;6.20;;;1.00;97.30;;;;;;4900078;29;20478;-92
2022/12/02 10:00:49;;;;;;;5.80;4.77;;;1.10;97.30;;;;;;4898398;29;20181;-89
2022/12/02 10:03:16;;;;;;;8.40;5.17;;;1.10;97.30;;;;;;4897862;29;20429;-90
2022/12/02 10:05:42;;;;;;;9.80;5.80;;;1.10;97.30;;;;;;4885998;29;20436;-89
2022/12/02 10:08:18;;;;;;;5.17;4.87;;;1.00;97.30;;;;;;4898195;29;20480;-90
2022/12/02 10:10:45;;;;;;;13.57;7.47;;;1.00;97.30;;;;;;4904084;29;20999;-90
2022/12/02 10:13:15;;;;;;;6.50;4.80;;;1.00;97.30;;;;;;4915247;29;20427;-90
2022/12/02 10:15:42;;;;;;;5.43;5.13;;;1.00;97.30;;;;;;4898493;29;20440;-90
2022/12/02 10:18:20;;;;;;;14.40;6.60;;;1.00;97.30;;;;;;4897799;29;20479;-89
2022/12/02 10:20:46;;;;;;;5.90;4.83;;;1.00;97.30;;;;;;4898006;29;20424;-90
2022/12/02 10:23:18;;;;;;;7.17;4.33;;;1.00;97.30;;;;;;4914958;29;20500;-93
2022/12/02 10:25:47;;;;;;;11.27;7.70;;;1.00;97.30;;;;;;4922403;29;20420;-90
2022/12/02 10:28:28;;;;;;;6.07;5.47;;;1.00;97.30;;;;;;4894988;28;20898;-91
2022/12/02 10:31:03;;;;;;;11.53;5.23;;;1.00;97.30;;;;;;4893907;29;20429;-92
2022/12/02 10:33:32;;;;;;;8.33;7.00;;;1.00;97.30;;;;;;4890466;29;20425;-90
2022/12/02 10:35:59;;;;;;;9.70;5.93;;;1.00;97.30;;;;;;4896170;29;20440;-90
2022/12/02 10:38:40;;;;;;;10.50;3.33;;;1.00;97.30;;;;;;4898672;28;20468;-91
2022/12/02 10:41:23;;;;;;;4.70;4.40;;;1.00;97.30;;;;;;4892132;29;20469;-91
2022/12/02 10:43:52;;;;;;;8.70;4.57;;;1.00;97.30;;;;;;4905513;29;20479;-92
2022/12/02 10:46:19;;;;;;;12.67;7.00;;;1.00;97.30;;;;;;4898900;29;20420;-92
2022/12/02 10:48:45;;;;;;;8.63;5.57;;;1.00;97.30;;;;;;4897967;28;20491;-91
2022/12/02 10:51:16;;;;;;;19.20;6.43;;;1.00;97.30;;;;;;4922787;23;20505;-91
2022/12/02 10:53:43;;;;;;;9.03;7.70;;;1.00;97.30;;;;;;5040856;28;20179;-85
2022/12/02 10:56:20;;;;;;;8.40;4.97;;;1.00;97.30;;;;;;5041543;28;20407;-86
2022/12/02 10:58:47;;;;;;;9.40;5.43;;;1.00;97.30;;;;;;5047840;28;20516;-88
2022/12/02 11:01:13;;;;;;;8.50;8.03;;;1.00;97.30;;;;;;5055081;28;20440;-85
2022/12/02 11:03:39;;;;;;;10.60;7.20;;;1.00;97.30;;;;;;5030586;28;20411;-85
2022/12/02 11:06:12;;;;;;;5.13;4.67;;;1.00;97.30;;;;;;5012448;28;20937;-85
2022/12/02 11:08:40;;;;;;;16.57;7.10;;;1.00;97.30;;;;;;5012405;28;20421;-84
2022/12/02 11:11:13;;;;;;;5.80;4.97;;;1.00;97.30;;;;;;5012235;28;20497;-84
2022/12/02 11:13:59;;;;;;;18.47;10.40;;;1.00;97.30;;;;;;5008597;28;20424;-87
2022/12/02 11:16:27;;;;;;;8.33;5.57;;;1.00;97.30;;;;;;5005773;28;20407;-85
2022/12/02 11:19:16;;;;;;;10.63;6.47;;;1.00;97.30;;;;;;4999648;28;20552;-85
2022/12/02 11:21:43;;;;;;;7.53;4.70;;;1.00;97.30;;;;;;5012542;28;20440;-84
2022/12/02 11:24:21;;;;;;;8.63;5.20;;;1.00;97.30;;;;;;5029980;28;20498;-86
2022/12/02 11:26:59;;;;;;;9.40;6.17;;;1.10;97.30;;;;;;5012200;28;20430;-85
2022/12/02 11:29:27;;;;;;;7.03;5.93;;;1.10;97.30;;;;;;5028469;28;20422;-85
2022/12/02 11:32:17;;;;;;;3.20;3.00;;;1.10;97.30;;;;;;5018809;28;20517;-87
2022/12/02 11:35:00;;;;;;;19.17;8.53;;;1.10;97.30;;;;;;5010514;28;20415;-86
2022/12/02 11:37:26;;;;;;;16.93;7.63;;;1.10;97.30;;;;;;5011891;28;20466;-86
2022/12/02 11:40:13;;;;;;;7.03;6.67;;;1.10;97.30;;;;;;5012470;28;20945;-85
2022/12/02 11:42:40;;;;;;;10.60;9.27;;;1.10;97.30;;;;;;4989738;28;21039;-85
2022/12/02 11:45:35;;;;;;;13.83;7.37;;;1.10;97.30;;;;;;5014026;28;20515;-85
2022/12/02 11:48:13;;;;;;;16.37;5.30;;;1.10;97.30;;;;;;5031216;28;20448;-86
2022/12/02 11:50:39;;;;;;;7.90;6.00;;;1.10;97.30;;;;;;5013014;28;20698;-86
2022/12/02 11:53:19;;;;;;;12.03;5.47;;;1.00;97.30;;;;;;5013587;28;20566;-85
2022/12/02 11:55:51;;;;;;;16.70;6.23;;;1.00;97.30;;;;;;5003629;28;20481;-85
2022/12/02 11:58:31;;;;;;;28.13;10.00;;;1.00;97.30;;;;;;5013778;28;20872;-85
2022/12/02 12:01:12;;;;;;;18.80;10.10;;;1.00;97.30;;;;;;5012796;28;20457;-85
2022/12/02 12:03:46;;;;;;;9.63;5.33;;;1.10;97.30;;;;;;5013196;28;20523;-86
2022/12/02 12:06:16;;;;;;;11.80;8.43;;;1.10;97.30;;;;;;5012878;28;20493;-84
2022/12/02 12:08:58;;;;;;;14.17;4.27;;;1.10;97.30;;;;;;5012102;28;20431;-88
2022/12/02 12:11:36;;;;;;;13.77;8.20;;;1.00;97.30;;;;;;5013360;28;20442;-88
2022/12/02 12:14:03;;;;;;;10.40;6.07;;;1.10;97.30;;;;;;5027894;28;20955;-87
2022/12/02 12:16:31;;;;;;;22.47;6.37;;;1.10;97.30;;;;;;5016123;28;20441;-88
2022/12/02 12:19:21;;;;;;;7.80;6.77;;;1.10;97.30;;;;;;5015879;28;20546;-88
2022/12/02 12:21:47;;;;;;;6.47;6.10;;;1.10;97.30;;;;;;5002748;28;20436;-87
2022/12/02 12:24:16;;;;;;;4.10;3.50;;;1.10;97.30;;;;;;5004414;28;20424;-88
2022/12/02 12:26:50;;;;;;;10.80;7.60;;;1.00;97.30;;;;;;5030802;28;20419;-88
2022/12/02 12:29:17;;;;;;;11.40;4.60;;;1.00;97.30;;;;;;5015637;28;20461;-88
2022/12/02 12:31:43;;;;;;;8.00;7.60;;;1.00;97.30;;;;;;5032427;28;20443;-87
2022/12/02 12:34:10;;;;;;;6.87;6.10;;;1.10;97.30;;;;;;5015526;28;20450;-88
2022/12/02 12:36:37;;;;;;;5.07;4.67;;;1.10;97.30;;;;;;5015095;28;20212;-89
2022/12/02 12:39:05;;;;;;;8.13;5.80;;;1.10;97.30;;;;;;5015445;28;20487;-88
2022/12/02 12:41:33;;;;;;;6.67;6.27;;;1.10;97.30;;;;;;5015590;28;20496;-88
2022/12/02 12:43:59;;;;;;;7.30;5.23;;;1.20;97.30;;;;;;5028605;28;20415;-87
2022/12/02 12:46:24;;;;;;;7.70;5.43;;;1.10;97.30;;;;;;5015720;28;20480;-88
2022/12/02 12:48:50;;;;;;;8.20;5.60;;;1.10;97.30;;;;;;5015347;28;20694;-88
2022/12/02 12:51:15;;;;;;;4.37;4.07;;;1.10;97.30;;;;;;5015302;28;21038;-87
2022/12/02 12:53:41;;;;;;;10.90;6.47;;;1.10;97.30;;;;;;5014629;28;20200;-88
2022/12/02 12:56:06;;;;;;;6.90;5.30;;;1.10;97.30;;;;;;5015115;28;20239;-87
2022/12/02 12:58:32;;;;;;;5.90;3.77;;;1.10;97.30;;;;;;5015134;28;20223;-87
2022/12/02 13:00:57;;;;;;;5.47;3.40;;;1.10;97.30;;;;;;5015062;28;20173;-88
2022/12/02 13:03:23;;;;;;;9.50;5.53;;;1.10;97.30;;;;;;5016844;28;20187;-88
2022/12/02 13:05:49;;;;;;;7.70;4.57;;;1.10;97.30;;;;;;5016524;28;20186;-86